sensor_id;sensor_type;location;lat;lon;timestamp;temperature;humidity
58519;DHT22;44310;48.106;12.008;2023-04-05T00:00:26;15.60;64.70
58519;DHT22;44310;48.106;12.008;2023-04-05T00:02:56;16.00;65.20
58519;DHT22;44310;48.106;12.008;2023-04-05T00:05:24;15.30;64.60
58519;DHT22;44310;48.106;12.008;2023-04-05T00:08:00;15.70;66.00
58519;DHT22;44310;48.106;12.008;2023-04-05T00:10:28;15.80;66.00
58519;DHT22;44310;48.106;12.008;2023-04-05T00:12:56;15.80;65.70
58519;DHT22;44310;48.106;12.008;2023-04-05T00:15:24;15.80;65.50
58519;DHT22;44310;48.106;12.008;2023-04-05T00:17:51;15.80;65.60
58519;DHT22;44310;48.106;12.008;2023-04-05T00:20:20;15.80;65.90
58519;DHT22;44310;48.106;12.008;2023-04-05T00:22:47;15.80;65.40
58519;DHT22;44310;48.106;12.008;2023-04-05T00:25:16;15.90;65.20
58519;DHT22;44310;48.106;12.008;2023-04-05T00:27:44;15.70;65.20
58519;DHT22;44310;48.106;12.008;2023-04-05T00:30:12;15.70;65.30
58519;DHT22;44310;48.106;12.008;2023-04-05T00:32:39;15.70;65.00
58519;DHT22;44310;48.106;12.008;2023-04-05T00:35:06;15.70;64.80
58519;DHT22;44310;48.106;12.008;2023-04-05T00:37:33;15.60;64.70
58519;DHT22;44310;48.106;12.008;2023-04-05T00:40:01;15.70;64.50
58519;DHT22;44310;48.106;12.008;2023-04-05T00:42:28;15.60;64.50
58519;DHT22;44310;48.106;12.008;2023-04-05T00:44:55;15.70;65.10
58519;DHT22;44310;48.106;12.008;2023-04-05T00:47:22;15.70;64.90
58519;DHT22;44310;48.106;12.008;2023-04-05T00:49:49;15.60;64.50
58519;DHT22;44310;48.106;12.008;2023-04-05T00:52:17;15.60;64.20
58519;DHT22;44310;48.106;12.008;2023-04-05T00:54:45;15.30;63.70
58519;DHT22;44310;48.106;12.008;2023-04-05T00:57:12;15.20;63.80
58519;DHT22;44310;48.106;12.008;2023-04-05T00:59:40;15.60;64.20
58519;DHT22;44310;48.106;12.008;2023-04-05T01:02:15;15.60;65.10
58519;DHT22;44310;48.106;12.008;2023-04-05T01:04:47;14.80;65.00
58519;DHT22;44310;48.106;12.008;2023-04-05T01:10:12;15.70;65.00
58519;DHT22;44310;48.106;12.008;2023-04-05T01:24:50;15.70;65.40
58519;DHT22;44310;48.106;12.008;2023-04-05T01:27:31;15.70;65.70
58519;DHT22;44310;48.106;12.008;2023-04-05T01:30:14;15.70;65.70
58519;DHT22;44310;48.106;12.008;2023-04-05T01:33:03;15.70;65.40
58519;DHT22;44310;48.106;12.008;2023-04-05T01:35:50;15.60;65.50
58519;DHT22;44310;48.106;12.008;2023-04-05T01:38:21;15.70;65.50
58519;DHT22;44310;48.106;12.008;2023-04-05T01:40:49;15.60;65.50
58519;DHT22;44310;48.106;12.008;2023-04-05T01:43:17;15.60;65.30
58519;DHT22;44310;48.106;12.008;2023-04-05T01:45:45;15.60;65.40
58519;DHT22;44310;48.106;12.008;2023-04-05T01:48:13;15.60;65.40
58519;DHT22;44310;48.106;12.008;2023-04-05T01:50:40;15.40;65.40
58519;DHT22;44310;48.106;12.008;2023-04-05T01:53:08;15.60;65.40
58519;DHT22;44310;48.106;12.008;2023-04-05T01:55:35;15.60;65.20
58519;DHT22;44310;48.106;12.008;2023-04-05T01:58:02;15.60;65.00
58519;DHT22;44310;48.106;12.008;2023-04-05T02:00:29;15.60;64.80
58519;DHT22;44310;48.106;12.008;2023-04-05T02:02:57;15.40;64.80
58519;DHT22;44310;48.106;12.008;2023-04-05T02:05:24;15.50;65.80
58519;DHT22;44310;48.106;12.008;2023-04-05T02:07:51;15.70;66.20
58519;DHT22;44310;48.106;12.008;2023-04-05T02:10:18;15.70;66.10
58519;DHT22;44310;48.106;12.008;2023-04-05T02:12:46;15.70;65.80
58519;DHT22;44310;48.106;12.008;2023-04-05T02:15:13;16.80;66.20
58519;DHT22;44310;48.106;12.008;2023-04-05T02:17:40;15.60;65.30
58519;DHT22;44310;48.106;12.008;2023-04-05T02:20:12;15.60;65.30
58519;DHT22;44310;48.106;12.008;2023-04-05T02:22:41;15.50;65.10
58519;DHT22;44310;48.106;12.008;2023-04-05T02:25:12;15.60;65.20
58519;DHT22;44310;48.106;12.008;2023-04-05T02:27:39;15.60;65.20
58519;DHT22;44310;48.106;12.008;2023-04-05T02:30:07;15.60;65.10
58519;DHT22;44310;48.106;12.008;2023-04-05T02:32:35;15.60;65.20
58519;DHT22;44310;48.106;12.008;2023-04-05T02:35:02;15.60;65.60
58519;DHT22;44310;48.106;12.008;2023-04-05T02:37:29;15.60;64.70
58519;DHT22;44310;48.106;12.008;2023-04-05T02:39:57;15.60;64.70
58519;DHT22;44310;48.106;12.008;2023-04-05T02:42:24;15.60;64.70
58519;DHT22;44310;48.106;12.008;2023-04-05T02:44:51;15.60;64.50
58519;DHT22;44310;48.106;12.008;2023-04-05T02:47:19;15.60;64.50
58519;DHT22;44310;48.106;12.008;2023-04-05T02:49:48;15.60;64.60
58519;DHT22;44310;48.106;12.008;2023-04-05T02:52:16;15.80;65.80
58519;DHT22;44310;48.106;12.008;2023-04-05T02:54:43;15.70;66.20
58519;DHT22;44310;48.106;12.008;2023-04-05T02:57:12;15.80;66.50
58519;DHT22;44310;48.106;12.008;2023-04-05T02:59:39;15.80;66.50
58519;DHT22;44310;48.106;12.008;2023-04-05T03:02:08;15.80;66.70
58519;DHT22;44310;48.106;12.008;2023-04-05T03:04:35;15.80;66.80
58519;DHT22;44310;48.106;12.008;2023-04-05T03:07:03;16.00;67.50
58519;DHT22;44310;48.106;12.008;2023-04-05T03:09:31;15.80;67.50
58519;DHT22;44310;48.106;12.008;2023-04-05T03:12:04;15.80;66.80
58519;DHT22;44310;48.106;12.008;2023-04-05T03:14:32;15.80;66.70
58519;DHT22;44310;48.106;12.008;2023-04-05T03:17:00;15.80;66.60
58519;DHT22;44310;48.106;12.008;2023-04-05T03:19:27;15.70;66.00
58519;DHT22;44310;48.106;12.008;2023-04-05T03:21:54;15.70;65.50
58519;DHT22;44310;48.106;12.008;2023-04-05T03:24:21;15.70;65.30
58519;DHT22;44310;48.106;12.008;2023-04-05T03:26:49;15.60;65.80
58519;DHT22;44310;48.106;12.008;2023-04-05T03:29:16;15.20;64.80
58519;DHT22;44310;48.106;12.008;2023-04-05T03:31:44;15.60;65.20
58519;DHT22;44310;48.106;12.008;2023-04-05T03:34:11;15.60;65.30
58519;DHT22;44310;48.106;12.008;2023-04-05T03:36:38;15.80;65.40
58519;DHT22;44310;48.106;12.008;2023-04-05T03:39:12;15.50;65.00
58519;DHT22;44310;48.106;12.008;2023-04-05T03:41:40;15.60;64.90
58519;DHT22;44310;48.106;12.008;2023-04-05T03:44:08;15.60;65.10
58519;DHT22;44310;48.106;12.008;2023-04-05T03:46:35;15.60;65.10
58519;DHT22;44310;48.106;12.008;2023-04-05T03:49:04;15.60;66.00
58519;DHT22;44310;48.106;12.008;2023-04-05T03:51:32;15.70;66.50
58519;DHT22;44310;48.106;12.008;2023-04-05T03:53:59;15.70;66.80
58519;DHT22;44310;48.106;12.008;2023-04-05T03:56:26;15.80;66.60
58519;DHT22;44310;48.106;12.008;2023-04-05T03:58:53;15.70;66.70
58519;DHT22;44310;48.106;12.008;2023-04-05T04:01:20;15.90;67.30
58519;DHT22;44310;48.106;12.008;2023-04-05T04:03:48;15.80;67.60
58519;DHT22;44310;48.106;12.008;2023-04-05T04:06:15;15.80;67.80
58519;DHT22;44310;48.106;12.008;2023-04-05T04:08:45;15.30;67.40
58519;DHT22;44310;48.106;12.008;2023-04-05T04:11:12;15.80;67.60
58519;DHT22;44310;48.106;12.008;2023-04-05T04:13:40;15.80;67.20
58519;DHT22;44310;48.106;12.008;2023-04-05T04:16:08;15.70;66.60
58519;DHT22;44310;48.106;12.008;2023-04-05T04:18:35;15.70;66.70
58519;DHT22;44310;48.106;12.008;2023-04-05T04:21:02;15.60;66.40
58519;DHT22;44310;48.106;12.008;2023-04-05T04:23:33;15.60;66.20
58519;DHT22;44310;48.106;12.008;2023-04-05T04:26:00;15.60;66.90
58519;DHT22;44310;48.106;12.008;2023-04-05T04:28:29;15.60;66.10
58519;DHT22;44310;48.106;12.008;2023-04-05T04:30:56;15.60;66.00
58519;DHT22;44310;48.106;12.008;2023-04-05T04:33:23;15.80;66.00
58519;DHT22;44310;48.106;12.008;2023-04-05T04:35:50;15.60;65.70
58519;DHT22;44310;48.106;12.008;2023-04-05T04:38:20;15.60;65.60
58519;DHT22;44310;48.106;12.008;2023-04-05T04:40:47;15.60;65.50
58519;DHT22;44310;48.106;12.008;2023-04-05T04:43:19;15.60;65.50
58519;DHT22;44310;48.106;12.008;2023-04-05T04:45:53;15.30;65.20
58519;DHT22;44310;48.106;12.008;2023-04-05T04:48:23;15.60;66.50
58519;DHT22;44310;48.106;12.008;2023-04-05T04:50:50;15.70;66.80
58519;DHT22;44310;48.106;12.008;2023-04-05T04:53:17;15.70;67.00
58519;DHT22;44310;48.106;12.008;2023-04-05T04:55:44;15.80;66.90
58519;DHT22;44310;48.106;12.008;2023-04-05T04:58:12;15.70;66.70
58519;DHT22;44310;48.106;12.008;2023-04-05T05:00:40;15.80;66.80
58519;DHT22;44310;48.106;12.008;2023-04-05T05:03:11;15.50;66.50
58519;DHT22;44310;48.106;12.008;2023-04-05T05:05:42;15.70;66.50
58519;DHT22;44310;48.106;12.008;2023-04-05T05:08:09;15.80;66.50
58519;DHT22;44310;48.106;12.008;2023-04-05T05:10:36;15.80;66.30
58519;DHT22;44310;48.106;12.008;2023-04-05T05:13:04;15.70;65.90
58519;DHT22;44310;48.106;12.008;2023-04-05T05:15:31;15.70;65.80
58519;DHT22;44310;48.106;12.008;2023-04-05T05:17:59;15.60;65.60
58519;DHT22;44310;48.106;12.008;2023-04-05T05:20:26;17.00;66.60
58519;DHT22;44310;48.106;12.008;2023-04-05T05:22:54;15.60;65.90
58519;DHT22;44310;48.106;12.008;2023-04-05T05:25:21;15.60;65.80
58519;DHT22;44310;48.106;12.008;2023-04-05T05:27:49;15.60;65.70
58519;DHT22;44310;48.106;12.008;2023-04-05T05:30:17;15.60;65.60
58519;DHT22;44310;48.106;12.008;2023-04-05T05:32:44;15.60;65.40
58519;DHT22;44310;48.106;12.008;2023-04-05T05:35:11;15.10;64.80
58519;DHT22;44310;48.106;12.008;2023-04-05T05:37:39;15.60;66.30
58519;DHT22;44310;48.106;12.008;2023-04-05T05:40:06;15.20;66.20
58519;DHT22;44310;48.106;12.008;2023-04-05T05:42:34;15.70;66.40
58519;DHT22;44310;48.106;12.008;2023-04-05T05:45:04;15.80;66.30
58519;DHT22;44310;48.106;12.008;2023-04-05T05:47:31;15.80;66.00
58519;DHT22;44310;48.106;12.008;2023-04-05T05:49:59;15.70;65.90
58519;DHT22;44310;48.106;12.008;2023-04-05T05:52:26;15.70;65.80
58519;DHT22;44310;48.106;12.008;2023-04-05T05:54:53;15.70;65.60
58519;DHT22;44310;48.106;12.008;2023-04-05T05:57:20;15.60;65.50
58519;DHT22;44310;48.106;12.008;2023-04-05T05:59:47;15.60;65.60
58519;DHT22;44310;48.106;12.008;2023-04-05T06:02:15;15.70;65.60
58519;DHT22;44310;48.106;12.008;2023-04-05T06:04:42;15.70;66.00
58519;DHT22;44310;48.106;12.008;2023-04-05T06:07:10;15.70;65.90
58519;DHT22;44310;48.106;12.008;2023-04-05T06:09:38;15.90;65.50
58519;DHT22;44310;48.106;12.008;2023-04-05T06:12:05;15.80;65.30
58519;DHT22;44310;48.106;12.008;2023-04-05T06:14:32;15.70;65.20
58519;DHT22;44310;48.106;12.008;2023-04-05T06:16:59;15.80;65.20
58519;DHT22;44310;48.106;12.008;2023-04-05T06:19:26;15.80;65.20
58519;DHT22;44310;48.106;12.008;2023-04-05T06:21:53;15.80;65.20
58519;DHT22;44310;48.106;12.008;2023-04-05T06:24:21;15.80;64.90
58519;DHT22;44310;48.106;12.008;2023-04-05T06:26:49;15.80;65.60
58519;DHT22;44310;48.106;12.008;2023-04-05T06:29:17;15.30;64.60
58519;DHT22;44310;48.106;12.008;2023-04-05T06:31:44;15.40;64.80
58519;DHT22;44310;48.106;12.008;2023-04-05T06:34:13;15.60;65.10
58519;DHT22;44310;48.106;12.008;2023-04-05T06:36:40;15.80;65.20
58519;DHT22;44310;48.106;12.008;2023-04-05T06:39:08;15.80;64.90
58519;DHT22;44310;48.106;12.008;2023-04-05T06:41:35;15.70;65.10
58519;DHT22;44310;48.106;12.008;2023-04-05T06:44:02;15.80;65.20
58519;DHT22;44310;48.106;12.008;2023-04-05T06:46:29;15.70;65.40
58519;DHT22;44310;48.106;12.008;2023-04-05T06:48:57;15.80;65.70
58519;DHT22;44310;48.106;12.008;2023-04-05T06:51:24;15.40;65.30
58519;DHT22;44310;48.106;12.008;2023-04-05T06:53:52;15.80;65.30
58519;DHT22;44310;48.106;12.008;2023-04-05T06:56:19;15.90;65.80
58519;DHT22;44310;48.106;12.008;2023-04-05T06:58:47;16.50;67.20
58519;DHT22;44310;48.106;12.008;2023-04-05T07:01:15;15.80;67.20
58519;DHT22;44310;48.106;12.008;2023-04-05T07:03:43;16.00;67.60
58519;DHT22;44310;48.106;12.008;2023-04-05T07:06:10;15.90;67.80
58519;DHT22;44310;48.106;12.008;2023-04-05T07:08:37;15.80;67.90
58519;DHT22;44310;48.106;12.008;2023-04-05T07:11:05;15.80;67.30
58519;DHT22;44310;48.106;12.008;2023-04-05T07:13:32;15.80;67.10
58519;DHT22;44310;48.106;12.008;2023-04-05T07:16:01;15.80;67.10
58519;DHT22;44310;48.106;12.008;2023-04-05T07:18:28;15.80;66.90
58519;DHT22;44310;48.106;12.008;2023-04-05T07:20:57;15.80;67.00
58519;DHT22;44310;48.106;12.008;2023-04-05T07:23:26;15.70;66.90
58519;DHT22;44310;48.106;12.008;2023-04-05T07:26:03;16.30;67.30
58519;DHT22;44310;48.106;12.008;2023-04-05T07:28:31;15.70;66.80
58519;DHT22;44310;48.106;12.008;2023-04-05T07:30:59;15.70;67.50
58519;DHT22;44310;48.106;12.008;2023-04-05T07:33:26;15.70;67.10
58519;DHT22;44310;48.106;12.008;2023-04-05T07:35:54;15.70;67.30
58519;DHT22;44310;48.106;12.008;2023-04-05T07:38:23;15.80;67.30
58519;DHT22;44310;48.106;12.008;2023-04-05T07:40:50;15.80;67.10
58519;DHT22;44310;48.106;12.008;2023-04-05T07:43:18;15.80;67.10
58519;DHT22;44310;48.106;12.008;2023-04-05T07:45:45;15.80;67.00
58519;DHT22;44310;48.106;12.008;2023-04-05T07:48:12;15.80;66.90
58519;DHT22;44310;48.106;12.008;2023-04-05T07:50:39;15.80;66.80
58519;DHT22;44310;48.106;12.008;2023-04-05T07:53:08;15.80;66.60
58519;DHT22;44310;48.106;12.008;2023-04-05T07:55:38;15.80;66.50
58519;DHT22;44310;48.106;12.008;2023-04-05T07:58:05;15.80;66.50
58519;DHT22;44310;48.106;12.008;2023-04-05T08:00:32;15.80;66.30
58519;DHT22;44310;48.106;12.008;2023-04-05T08:03:00;15.80;66.30
58519;DHT22;44310;48.106;12.008;2023-04-05T08:05:28;14.90;65.70
58519;DHT22;44310;48.106;12.008;2023-04-05T08:07:55;15.80;66.30
58519;DHT22;44310;48.106;12.008;2023-04-05T08:10:24;15.80;66.30
58519;DHT22;44310;48.106;12.008;2023-04-05T08:12:52;15.80;66.40
58519;DHT22;44310;48.106;12.008;2023-04-05T08:15:19;15.80;66.80
58519;DHT22;44310;48.106;12.008;2023-04-05T08:17:47;15.80;66.90
58519;DHT22;44310;48.106;12.008;2023-04-05T08:20:14;15.90;67.20
58519;DHT22;44310;48.106;12.008;2023-04-05T08:22:41;15.90;67.00
58519;DHT22;44310;48.106;12.008;2023-04-05T08:25:08;15.80;66.80
58519;DHT22;44310;48.106;12.008;2023-04-05T08:27:36;15.80;66.60
58519;DHT22;44310;48.106;12.008;2023-04-05T08:30:04;15.80;66.60
58519;DHT22;44310;48.106;12.008;2023-04-05T08:32:33;15.70;66.10
58519;DHT22;44310;48.106;12.008;2023-04-05T08:35:00;15.80;66.10
58519;DHT22;44310;48.106;12.008;2023-04-05T08:37:27;15.80;66.30
58519;DHT22;44310;48.106;12.008;2023-04-05T08:39:54;15.90;66.20
58519;DHT22;44310;48.106;12.008;2023-04-05T08:42:45;15.90;65.60
58519;DHT22;44310;48.106;12.008;2023-04-05T08:45:16;15.80;64.80
58519;DHT22;44310;48.106;12.008;2023-04-05T08:47:45;15.40;63.70
58519;DHT22;44310;48.106;12.008;2023-04-05T08:50:14;15.40;61.70
58519;DHT22;44310;48.106;12.008;2023-04-05T08:52:42;15.00;59.50
58519;DHT22;44310;48.106;12.008;2023-04-05T08:55:15;15.10;59.70
58519;DHT22;44310;48.106;12.008;2023-04-05T08:57:43;15.10;59.80
58519;DHT22;44310;48.106;12.008;2023-04-05T09:00:14;15.50;59.80
58519;DHT22;44310;48.106;12.008;2023-04-05T09:02:43;15.20;59.70
58519;DHT22;44310;48.106;12.008;2023-04-05T09:05:14;15.30;59.50
58519;DHT22;44310;48.106;12.008;2023-04-05T09:07:43;15.40;59.80
58519;DHT22;44310;48.106;12.008;2023-04-05T09:10:13;15.50;60.30
58519;DHT22;44310;48.106;12.008;2023-04-05T09:12:41;15.50;59.70
58519;DHT22;44310;48.106;12.008;2023-04-05T09:15:08;15.60;59.60
58519;DHT22;44310;48.106;12.008;2023-04-05T09:17:38;15.60;61.00
58519;DHT22;44310;48.106;12.008;2023-04-05T09:20:05;16.10;60.00
58519;DHT22;44310;48.106;12.008;2023-04-05T09:22:42;15.20;57.30
58519;DHT22;44310;48.106;12.008;2023-04-05T09:27:59;14.50;53.00
58519;DHT22;44310;48.106;12.008;2023-04-05T09:30:26;14.30;51.80
58519;DHT22;44310;48.106;12.008;2023-04-05T09:32:54;14.10;53.40
58519;DHT22;44310;48.106;12.008;2023-04-05T09:35:27;14.10;52.60
58519;DHT22;44310;48.106;12.008;2023-04-05T09:38:00;14.00;51.50
58519;DHT22;44310;48.106;12.008;2023-04-05T09:40:44;14.00;53.10
58519;DHT22;44310;48.106;12.008;2023-04-05T09:43:13;14.10;53.50
58519;DHT22;44310;48.106;12.008;2023-04-05T09:45:59;14.20;53.20
58519;DHT22;44310;48.106;12.008;2023-04-05T09:48:46;14.30;54.80
58519;DHT22;44310;48.106;12.008;2023-04-05T09:51:14;14.40;55.40
58519;DHT22;44310;48.106;12.008;2023-04-05T09:54:02;14.60;56.00
58519;DHT22;44310;48.106;12.008;2023-04-05T09:56:32;14.70;56.60
58519;DHT22;44310;48.106;12.008;2023-04-05T09:59:10;14.60;56.50
58519;DHT22;44310;48.106;12.008;2023-04-05T10:01:42;14.70;56.80
58519;DHT22;44310;48.106;12.008;2023-04-05T10:04:10;14.40;56.80
58519;DHT22;44310;48.106;12.008;2023-04-05T10:06:41;14.90;56.80
58519;DHT22;44310;48.106;12.008;2023-04-05T10:09:10;14.90;56.90
58519;DHT22;44310;48.106;12.008;2023-04-05T10:11:38;15.70;57.50
58519;DHT22;44310;48.106;12.008;2023-04-05T10:14:06;15.20;57.60
58519;DHT22;44310;48.106;12.008;2023-04-05T10:17:30;15.00;57.30
58519;DHT22;44310;48.106;12.008;2023-04-05T10:19:56;15.00;57.40
58519;DHT22;44310;48.106;12.008;2023-04-05T10:25:09;15.00;58.00
58519;DHT22;44310;48.106;12.008;2023-04-05T10:27:44;15.10;58.00
58519;DHT22;44310;48.106;12.008;2023-04-05T10:30:14;15.10;57.80
58519;DHT22;44310;48.106;12.008;2023-04-05T10:35:52;15.10;57.70
58519;DHT22;44310;48.106;12.008;2023-04-05T10:38:27;15.10;57.60
58519;DHT22;44310;48.106;12.008;2023-04-05T10:41:11;15.10;57.60
58519;DHT22;44310;48.106;12.008;2023-04-05T10:43:39;15.10;57.50
58519;DHT22;44310;48.106;12.008;2023-04-05T10:46:07;15.10;57.50
58519;DHT22;44310;48.106;12.008;2023-04-05T10:51:04;15.10;57.60
58519;DHT22;44310;48.106;12.008;2023-04-05T10:53:32;15.10;57.50
58519;DHT22;44310;48.106;12.008;2023-04-05T10:56:00;15.10;57.40
58519;DHT22;44310;48.106;12.008;2023-04-05T10:58:28;14.90;57.40
58519;DHT22;44310;48.106;12.008;2023-04-05T11:00:56;15.20;57.60
58519;DHT22;44310;48.106;12.008;2023-04-05T11:09:07;15.20;57.60
58519;DHT22;44310;48.106;12.008;2023-04-05T11:11:40;15.20;57.60
58519;DHT22;44310;48.106;12.008;2023-04-05T11:17:01;15.10;57.50
58519;DHT22;44310;48.106;12.008;2023-04-05T11:19:47;15.10;57.20
58519;DHT22;44310;48.106;12.008;2023-04-05T11:22:24;15.00;57.20
58519;DHT22;44310;48.106;12.008;2023-04-05T11:25:00;15.10;58.30
58519;DHT22;44310;48.106;12.008;2023-04-05T11:27:31;15.10;58.40
58519;DHT22;44310;48.106;12.008;2023-04-05T11:30:00;15.20;58.30
58519;DHT22;44310;48.106;12.008;2023-04-05T11:32:42;15.20;58.10
58519;DHT22;44310;48.106;12.008;2023-04-05T11:35:14;15.20;58.10
58519;DHT22;44310;48.106;12.008;2023-04-05T11:38:04;15.20;58.10
58519;DHT22;44310;48.106;12.008;2023-04-05T11:40:32;15.20;57.80
58519;DHT22;44310;48.106;12.008;2023-04-05T11:43:04;15.20;57.80
58519;DHT22;44310;48.106;12.008;2023-04-05T11:45:37;15.20;57.80
58519;DHT22;44310;48.106;12.008;2023-04-05T11:48:06;15.20;57.60
58519;DHT22;44310;48.106;12.008;2023-04-05T11:50:35;15.20;57.70
58519;DHT22;44310;48.106;12.008;2023-04-05T11:53:14;15.10;57.60
58519;DHT22;44310;48.106;12.008;2023-04-05T11:55:43;15.20;57.50
58519;DHT22;44310;48.106;12.008;2023-04-05T11:58:21;15.20;57.50
58519;DHT22;44310;48.106;12.008;2023-04-05T12:01:02;15.20;57.50
58519;DHT22;44310;48.106;12.008;2023-04-05T12:03:29;15.20;57.60
58519;DHT22;44310;48.106;12.008;2023-04-05T12:05:59;15.20;57.50
58519;DHT22;44310;48.106;12.008;2023-04-05T12:08:45;15.20;57.30
58519;DHT22;44310;48.106;12.008;2023-04-05T12:11:26;15.20;57.30
58519;DHT22;44310;48.106;12.008;2023-04-05T12:13:58;15.20;57.00
58519;DHT22;44310;48.106;12.008;2023-04-05T12:16:27;15.20;56.30
58519;DHT22;44310;48.106;12.008;2023-04-05T12:18:59;15.40;56.50
58519;DHT22;44310;48.106;12.008;2023-04-05T12:21:26;15.20;56.00
58519;DHT22;44310;48.106;12.008;2023-04-05T12:23:54;15.20;56.10
58519;DHT22;44310;48.106;12.008;2023-04-05T12:26:21;15.50;56.40
58519;DHT22;44310;48.106;12.008;2023-04-05T12:28:58;15.20;56.50
58519;DHT22;44310;48.106;12.008;2023-04-05T12:34:07;15.20;56.70
58519;DHT22;44310;48.106;12.008;2023-04-05T12:36:35;15.70;56.90
58519;DHT22;44310;48.106;12.008;2023-04-05T12:39:05;15.30;56.70
58519;DHT22;44310;48.106;12.008;2023-04-05T12:41:34;15.20;56.80
58519;DHT22;44310;48.106;12.008;2023-04-05T12:44:30;15.30;57.00
58519;DHT22;44310;48.106;12.008;2023-04-05T12:47:01;15.30;57.20
58519;DHT22;44310;48.106;12.008;2023-04-05T12:49:29;15.50;57.30
58519;DHT22;44310;48.106;12.008;2023-04-05T12:52:01;15.40;57.40
58519;DHT22;44310;48.106;12.008;2023-04-05T12:54:29;15.30;57.40
58519;DHT22;44310;48.106;12.008;2023-04-05T12:57:00;15.30;57.40
58519;DHT22;44310;48.106;12.008;2023-04-05T12:59:30;15.30;57.20
58519;DHT22;44310;48.106;12.008;2023-04-05T13:01:57;15.30;57.20
58519;DHT22;44310;48.106;12.008;2023-04-05T13:04:25;15.40;57.40
58519;DHT22;44310;48.106;12.008;2023-04-05T13:06:52;15.30;57.40
58519;DHT22;44310;48.106;12.008;2023-04-05T13:09:20;14.90;56.80
58519;DHT22;44310;48.106;12.008;2023-04-05T13:11:48;15.30;57.10
58519;DHT22;44310;48.106;12.008;2023-04-05T13:14:16;15.30;57.10
58519;DHT22;44310;48.106;12.008;2023-04-05T13:16:43;15.30;57.80
58519;DHT22;44310;48.106;12.008;2023-04-05T13:19:11;15.30;57.00
58519;DHT22;44310;48.106;12.008;2023-04-05T13:21:38;15.30;57.60
58519;DHT22;44310;48.106;12.008;2023-04-05T13:24:05;15.30;57.00
58519;DHT22;44310;48.106;12.008;2023-04-05T13:26:32;15.40;56.90
58519;DHT22;44310;48.106;12.008;2023-04-05T13:28:59;15.40;56.80
58519;DHT22;44310;48.106;12.008;2023-04-05T13:31:26;15.50;56.80
58519;DHT22;44310;48.106;12.008;2023-04-05T13:33:53;15.40;56.40
58519;DHT22;44310;48.106;12.008;2023-04-05T13:36:20;15.50;56.60
58519;DHT22;44310;48.106;12.008;2023-04-05T13:38:48;15.50;56.50
58519;DHT22;44310;48.106;12.008;2023-04-05T13:41:15;15.50;56.30
58519;DHT22;44310;48.106;12.008;2023-04-05T13:43:42;15.30;55.80
58519;DHT22;44310;48.106;12.008;2023-04-05T13:46:09;15.50;55.90
58519;DHT22;44310;48.106;12.008;2023-04-05T13:48:36;15.50;56.30
58519;DHT22;44310;48.106;12.008;2023-04-05T13:51:04;15.50;56.50
58519;DHT22;44310;48.106;12.008;2023-04-05T13:53:31;15.50;56.50
58519;DHT22;44310;48.106;12.008;2023-04-05T13:55:58;15.50;56.10
58519;DHT22;44310;48.106;12.008;2023-04-05T13:58:25;15.50;56.50
58519;DHT22;44310;48.106;12.008;2023-04-05T14:00:53;15.50;56.60
58519;DHT22;44310;48.106;12.008;2023-04-05T14:03:20;15.30;56.40
58519;DHT22;44310;48.106;12.008;2023-04-05T14:05:47;15.50;56.20
58519;DHT22;44310;48.106;12.008;2023-04-05T14:08:17;15.50;55.80
58519;DHT22;44310;48.106;12.008;2023-04-05T14:10:45;15.50;56.20
58519;DHT22;44310;48.106;12.008;2023-04-05T14:13:12;15.50;56.00
58519;DHT22;44310;48.106;12.008;2023-04-05T14:15:42;15.50;56.10
58519;DHT22;44310;48.106;12.008;2023-04-05T14:18:10;15.50;55.40
58519;DHT22;44310;48.106;12.008;2023-04-05T14:20:37;15.40;55.60
58519;DHT22;44310;48.106;12.008;2023-04-05T14:23:05;15.50;55.70
58519;DHT22;44310;48.106;12.008;2023-04-05T14:25:32;15.40;56.20
58519;DHT22;44310;48.106;12.008;2023-04-05T14:27:59;15.30;55.70
58519;DHT22;44310;48.106;12.008;2023-04-05T14:30:27;15.40;56.20
58519;DHT22;44310;48.106;12.008;2023-04-05T14:32:54;15.40;55.60
58519;DHT22;44310;48.106;12.008;2023-04-05T14:35:21;15.40;55.20
58519;DHT22;44310;48.106;12.008;2023-04-05T14:37:49;15.40;55.30
58519;DHT22;44310;48.106;12.008;2023-04-05T14:40:27;15.40;55.50
58519;DHT22;44310;48.106;12.008;2023-04-05T14:42:54;15.40;55.80
58519;DHT22;44310;48.106;12.008;2023-04-05T14:45:21;15.40;55.70
58519;DHT22;44310;48.106;12.008;2023-04-05T14:47:53;15.40;56.00
58519;DHT22;44310;48.106;12.008;2023-04-05T14:50:20;15.40;56.30
58519;DHT22;44310;48.106;12.008;2023-04-05T14:52:48;15.40;57.10
58519;DHT22;44310;48.106;12.008;2023-04-05T14:55:15;15.50;57.30
58519;DHT22;44310;48.106;12.008;2023-04-05T14:57:42;15.40;57.10
58519;DHT22;44310;48.106;12.008;2023-04-05T15:00:10;15.50;56.80
58519;DHT22;44310;48.106;12.008;2023-04-05T15:02:37;15.50;57.30
58519;DHT22;44310;48.106;12.008;2023-04-05T15:05:05;15.50;56.30
58519;DHT22;44310;48.106;12.008;2023-04-05T15:07:32;15.30;53.50
58519;DHT22;44310;48.106;12.008;2023-04-05T15:10:00;15.20;55.60
58519;DHT22;44310;48.106;12.008;2023-04-05T15:12:27;15.20;55.20
58519;DHT22;44310;48.106;12.008;2023-04-05T15:14:54;15.30;55.70
58519;DHT22;44310;48.106;12.008;2023-04-05T15:17:21;15.40;55.60
58519;DHT22;44310;48.106;12.008;2023-04-05T15:19:48;15.40;56.20
58519;DHT22;44310;48.106;12.008;2023-04-05T15:22:16;15.50;56.30
58519;DHT22;44310;48.106;12.008;2023-04-05T15:24:44;15.50;56.60
58519;DHT22;44310;48.106;12.008;2023-04-05T15:27:11;15.60;57.30
58519;DHT22;44310;48.106;12.008;2023-04-05T15:29:38;15.60;57.90
58519;DHT22;44310;48.106;12.008;2023-04-05T15:32:05;15.70;58.30
58519;DHT22;44310;48.106;12.008;2023-04-05T15:34:33;15.70;58.50
58519;DHT22;44310;48.106;12.008;2023-04-05T15:37:00;15.70;58.40
58519;DHT22;44310;48.106;12.008;2023-04-05T15:39:27;15.70;58.30
58519;DHT22;44310;48.106;12.008;2023-04-05T15:41:54;15.70;58.40
58519;DHT22;44310;48.106;12.008;2023-04-05T15:44:23;15.70;58.00
58519;DHT22;44310;48.106;12.008;2023-04-05T15:46:50;15.70;58.20
58519;DHT22;44310;48.106;12.008;2023-04-05T15:49:17;15.50;59.90
58519;DHT22;44310;48.106;12.008;2023-04-05T15:51:44;15.50;58.00
58519;DHT22;44310;48.106;12.008;2023-04-05T15:54:12;15.50;58.90
58519;DHT22;44310;48.106;12.008;2023-04-05T15:56:44;15.50;60.20
58519;DHT22;44310;48.106;12.008;2023-04-05T15:59:12;15.50;60.40
58519;DHT22;44310;48.106;12.008;2023-04-05T16:01:40;15.60;61.50
58519;DHT22;44310;48.106;12.008;2023-04-05T16:04:07;15.70;62.30